Time;durP1;ratioP1;P1;durP2;ratioP2;P2;SDS_P1;SDS_P2;PMS_P1;PMS_P2;Temp;Humidity;BMP_temperature;BMP_pressure;BME280_temperature;BME280_humidity;BME280_pressure;Samples;Min_cycle;Max_cycle;Signal;HPM_P1;HPM_P2
2021/01/23 00:01:29;;;;;;;;;;;2.00;99.90;;;;;;5074363;28;19924;-72
2021/01/23 00:03:56;;;;;;;;;;;2.00;99.90;;;;;;5074213;28;20442;-73
2021/01/23 00:06:22;;;;;;;;;;;2.00;99.90;;;;;;5074490;28;19929;-71
2021/01/23 00:08:48;;;;;;;;;;;2.00;99.90;;;;;;5074365;28;19924;-72
2021/01/23 00:11:14;;;;;;;;;;;2.00;99.90;;;;;;5080499;28;19931;-72
2021/01/23 00:13:40;;;;;;;;;;;1.90;99.90;;;;;;5094307;28;19928;-72
2021/01/23 00:16:06;;;;;;;;;;;1.90;99.90;;;;;;5093889;28;19962;-73
2021/01/23 00:18:32;;;;;;;;;;;1.90;99.90;;;;;;5094399;28;20331;-72
2021/01/23 00:20:58;;;;;;;;;;;1.90;99.90;;;;;;5094183;28;19939;-72
2021/01/23 00:23:24;;;;;;;;;;;1.90;99.90;;;;;;5094485;28;19924;-71
2021/01/23 00:25:51;;;;;;;;;;;1.90;99.90;;;;;;5078242;28;19924;-72
2021/01/23 00:28:16;;;;;;;;;;;1.90;99.90;;;;;;5074011;28;19931;-72
2021/01/23 00:30:42;;;;;;;;;;;1.90;99.90;;;;;;5092244;28;20289;-72
2021/01/23 00:33:08;;;;;;;;;;;1.90;99.90;;;;;;5093955;28;19924;-72
2021/01/23 00:35:34;;;;;;;;;;;1.90;99.90;;;;;;5093925;28;19924;-72
2021/01/23 00:38:01;;;;;;;;;;;1.90;99.90;;;;;;5094106;28;20354;-72
2021/01/23 00:40:27;;;;;;;;;;;2.00;99.90;;;;;;5093636;28;19924;-72
2021/01/23 00:42:53;;;;;;;;;;;2.00;99.90;;;;;;5084772;28;19998;-72
2021/01/23 00:45:19;;;;;;;;;;;2.00;99.90;;;;;;5073757;28;20343;-71
2021/01/23 00:47:45;;;;;;;;;;;2.00;99.90;;;;;;5073774;28;19925;-71
2021/01/23 00:50:12;;;;;;;;;;;2.00;99.90;;;;;;5091173;28;19924;-71
2021/01/23 00:52:38;;;;;;;;;;;2.10;99.90;;;;;;5093934;28;20423;-71
2021/01/23 00:55:05;;;;;;;;;;;2.10;99.90;;;;;;5093683;28;19924;-72
2021/01/23 00:57:31;;;;;;;;;;;2.00;99.90;;;;;;5082666;28;19931;-71
2021/01/23 00:59:57;;;;;;;;;;;2.00;99.90;;;;;;5073214;28;20370;-73
2021/01/23 01:02:23;;;;;;;;;;;2.00;99.90;;;;;;5073456;28;19925;-71
2021/01/23 01:04:49;;;;;;;;;;;2.00;99.90;;;;;;5073027;28;19928;-71
2021/01/23 01:07:15;;;;;;;;;;;2.00;99.90;;;;;;5073237;28;19929;-72
2021/01/23 01:09:41;;;;;;;;;;;2.00;99.90;;;;;;5073025;28;20343;-71
2021/01/23 01:12:08;;;;;;;;;;;2.10;99.90;;;;;;5081866;28;19982;-71
2021/01/23 01:14:34;;;;;;;;;;;2.10;99.90;;;;;;5093593;28;19924;-72
2021/01/23 01:17:00;;;;;;;;;;;2.10;99.90;;;;;;5093231;28;19930;-71
2021/01/23 01:19:26;;;;;;;;;;;2.10;99.90;;;;;;5093109;28;19924;-71
2021/01/23 01:21:52;;;;;;;;;;;2.10;99.90;;;;;;5093001;28;19924;-72
2021/01/23 01:24:18;;;;;;;;;;;2.10;99.90;;;;;;5092861;28;20405;-72
2021/01/23 01:26:44;;;;;;;;;;;2.10;99.90;;;;;;5092986;28;19924;-72
2021/01/23 01:29:11;;;;;;;;;;;2.10;99.90;;;;;;5092380;28;19953;-71
2021/01/23 01:31:37;;;;;;;;;;;2.00;99.90;;;;;;5092930;28;19931;-71
2021/01/23 01:34:03;;;;;;;;;;;2.00;99.90;;;;;;5091295;28;19925;-71
2021/01/23 01:36:29;;;;;;;;;;;2.00;99.90;;;;;;5092998;28;19928;-71
2021/01/23 01:38:55;;;;;;;;;;;2.00;99.90;;;;;;5092961;28;19932;-72
2021/01/23 01:41:21;;;;;;;;;;;2.00;99.90;;;;;;5092509;28;19927;-71
2021/01/23 01:43:47;;;;;;;;;;;1.90;99.90;;;;;;5092983;28;19931;-71
2021/01/23 01:46:14;;;;;;;;;;;1.90;99.90;;;;;;5092883;28;20469;-71
2021/01/23 01:48:40;;;;;;;;;;;1.90;99.90;;;;;;5092723;28;19924;-71
2021/01/23 01:51:06;;;;;;;;;;;1.90;99.90;;;;;;5092312;28;20473;-71
2021/01/23 01:53:33;;;;;;;;;;;1.90;99.90;;;;;;5092704;28;20377;-71
2021/01/23 01:55:59;;;;;;;;;;;1.90;99.90;;;;;;5077517;28;20312;-72
2021/01/23 01:58:25;;;;;;;;;;;1.90;99.90;;;;;;5072611;28;19931;-71
2021/01/23 02:00:52;;;;;;;;;;;2.00;99.90;;;;;;5072096;28;19925;-71
2021/01/23 02:03:31;;;;;;;;;;;2.00;99.90;;;;;;5072210;28;19970;-71
2021/01/23 02:06:02;;;;;;;;;;;1.90;99.90;;;;;;5072323;28;19978;-71
2021/01/23 02:08:30;;;;;;;;;;;2.00;99.90;;;;;;5072601;28;19928;-71
2021/01/23 02:11:01;;;;;;;;;;;2.00;99.90;;;;;;5092386;28;19946;-71
2021/01/23 02:13:29;;;;;;;;;;;2.00;99.90;;;;;;5092240;28;19931;-69
2021/01/23 02:16:00;;;;;;;;;;;2.00;99.90;;;;;;5092389;28;19924;-68
2021/01/23 02:18:29;;;;;;;;;;;2.00;99.90;;;;;;5092377;28;19946;-69
2021/01/23 02:21:28;;;;;;;;;;;2.00;99.90;;;;;;5092066;28;20018;-68
2021/01/23 02:23:56;;;;;;;;;;;2.00;99.90;;;;;;5014458;28;19933;-68
2021/01/23 02:26:27;;;;;;;;;;;2.00;99.90;;;;;;5074778;28;20309;-68
2021/01/23 02:29:07;;;;;;;;;;;2.00;99.90;;;;;;5091365;28;19932;-68
2021/01/23 02:31:36;;;;;;;;;;;2.00;99.90;;;;;;5071946;28;19932;-68
2021/01/23 02:34:03;;;;;;;;;;;2.00;99.90;;;;;;5072035;28;19994;-69
2021/01/23 02:36:30;;;;;;;;;;;2.00;99.90;;;;;;5072130;28;20405;-68
2021/01/23 02:38:57;;;;;;;;;;;2.00;99.90;;;;;;5072054;28;19951;-69
2021/01/23 02:41:23;;;;;;;;;;;2.00;99.90;;;;;;5075449;28;19937;-68
2021/01/23 02:43:49;;;;;;;;;;;2.00;99.90;;;;;;5084035;28;19971;-68
2021/01/23 02:46:15;;;;;;;;;;;2.00;99.90;;;;;;5096265;28;20397;-68
2021/01/23 02:48:42;;;;;;;;;;;2.00;99.90;;;;;;5096198;28;19924;-68
2021/01/23 02:51:12;;;;;;;;;;;2.00;99.90;;;;;;5084370;28;19931;-69
2021/01/23 02:53:39;;;;;;;;;;;2.00;99.90;;;;;;5075557;28;20286;-68
2021/01/23 02:56:07;;;;;;;;;;;2.00;99.90;;;;;;5075734;28;20384;-68
2021/01/23 02:58:35;;;;;;;;;;;2.00;99.90;;;;;;5077705;28;19972;-69
2021/01/23 03:01:01;;;;;;;;;;;2.00;99.90;;;;;;5095589;28;19924;-69
2021/01/23 03:03:28;;;;;;;;;;;2.10;99.90;;;;;;5095488;28;19924;-69
2021/01/23 03:05:55;;;;;;;;;;;2.10;99.90;;;;;;5095824;28;20445;-69
2021/01/23 03:08:21;;;;;;;;;;;2.00;99.90;;;;;;5095983;28;19924;-69
2021/01/23 03:10:47;;;;;;;;;;;2.00;99.90;;;;;;5095600;28;19924;-70
2021/01/23 03:13:14;;;;;;;;;;;2.00;99.90;;;;;;5095812;28;19971;-69
2021/01/23 03:15:40;;;;;;;;;;;2.00;99.90;;;;;;5095768;28;19931;-70
2021/01/23 03:18:07;;;;;;;;;;;1.90;99.90;;;;;;5095481;28;20296;-70
2021/01/23 03:20:33;;;;;;;;;;;2.00;99.90;;;;;;5095259;28;19924;-69
2021/01/23 03:23:00;;;;;;;;;;;2.00;99.90;;;;;;5095581;28;19995;-69
2021/01/23 03:25:26;;;;;;;;;;;2.00;99.90;;;;;;5095556;28;20392;-69
2021/01/23 03:27:52;;;;;;;;;;;2.00;99.90;;;;;;5095439;28;19924;-69
2021/01/23 03:30:19;;;;;;;;;;;2.00;99.90;;;;;;5094932;28;19924;-68
2021/01/23 03:32:45;;;;;;;;;;;2.00;99.90;;;;;;5094539;28;19924;-69
2021/01/23 03:35:12;;;;;;;;;;;2.00;99.90;;;;;;5095293;28;20368;-69
2021/01/23 03:37:38;;;;;;;;;;;2.00;99.90;;;;;;5095462;28;19924;-69
2021/01/23 03:40:06;;;;;;;;;;;2.00;99.90;;;;;;5094889;28;19924;-69
2021/01/23 03:42:32;;;;;;;;;;;2.00;99.90;;;;;;5095166;28;19977;-70
2021/01/23 03:44:58;;;;;;;;;;;2.00;99.90;;;;;;5095187;28;19924;-70
2021/01/23 03:47:24;;;;;;;;;;;2.00;99.90;;;;;;5077405;28;19925;-69
2021/01/23 03:49:50;;;;;;;;;;;2.00;99.90;;;;;;5074564;28;19985;-69
2021/01/23 03:52:16;;;;;;;;;;;2.00;99.90;;;;;;5073777;28;19924;-69
2021/01/23 03:54:42;;;;;;;;;;;2.00;99.90;;;;;;5074719;28;20018;-69
2021/01/23 03:57:09;;;;;;;;;;;2.00;99.90;;;;;;5074545;28;19925;-69
2021/01/23 03:59:36;;;;;;;;;;;2.00;99.90;;;;;;5074737;28;19926;-70
2021/01/23 04:02:02;;;;;;;;;;;2.00;99.90;;;;;;5074246;28;19979;-68
2021/01/23 04:04:28;;;;;;;;;;;2.00;99.90;;;;;;5074683;28;19924;-69
2021/01/23 04:06:55;;;;;;;;;;;2.00;99.90;;;;;;5074505;28;20090;-69
2021/01/23 04:09:21;;;;;;;;;;;2.00;99.90;;;;;;5074486;28;19932;-69
2021/01/23 04:11:47;;;;;;;;;;;2.00;99.90;;;;;;5074196;28;19924;-69
2021/01/23 04:14:13;;;;;;;;;;;2.10;99.90;;;;;;5089953;28;19931;-69
2021/01/23 04:16:39;;;;;;;;;;;2.10;99.90;;;;;;5094490;28;20020;-69
2021/01/23 04:19:05;;;;;;;;;;;2.00;99.90;;;;;;5094631;28;19924;-69
2021/01/23 04:21:31;;;;;;;;;;;2.10;99.90;;;;;;5094254;28;19931;-69
2021/01/23 04:23:57;;;;;;;;;;;2.00;99.90;;;;;;5094205;28;20396;-70
2021/01/23 04:26:24;;;;;;;;;;;2.00;99.90;;;;;;5094278;28;19924;-69
2021/01/23 04:28:50;;;;;;;;;;;2.00;99.90;;;;;;5092544;28;19935;-69
2021/01/23 04:31:17;;;;;;;;;;;2.00;99.90;;;;;;5093796;28;19931;-70
2021/01/23 04:33:43;;;;;;;;;;;2.00;99.90;;;;;;5094307;28;19947;-69
2021/01/23 04:36:09;;;;;;;;;;;2.00;99.90;;;;;;5094396;28;19924;-69
2021/01/23 04:38:35;;;;;;;;;;;2.00;99.90;;;;;;5091445;28;20035;-69
2021/01/23 04:41:01;;;;;;;;;;;2.00;99.90;;;;;;5074547;28;19924;-70
2021/01/23 04:43:27;;;;;;;;;;;1.90;99.90;;;;;;5073669;28;19925;-69
2021/01/23 04:45:53;;;;;;;;;;;1.90;99.90;;;;;;5073578;28;19974;-70
2021/01/23 04:48:20;;;;;;;;;;;1.90;99.90;;;;;;5073746;28;19936;-69
2021/01/23 04:50:46;;;;;;;;;;;2.00;99.90;;;;;;5073553;28;20293;-69
2021/01/23 04:53:12;;;;;;;;;;;2.00;99.90;;;;;;5073555;28;19931;-70
2021/01/23 04:55:38;;;;;;;;;;;2.00;99.90;;;;;;5073475;28;20343;-69
2021/01/23 04:58:04;;;;;;;;;;;2.00;99.90;;;;;;5073460;28;19931;-69
2021/01/23 05:00:30;;;;;;;;;;;2.00;99.90;;;;;;5093411;28;19927;-69
2021/01/23 05:02:57;;;;;;;;;;;2.00;99.90;;;;;;5093456;28;19978;-69
2021/01/23 05:05:24;;;;;;;;;;;2.00;99.90;;;;;;5093706;28;20381;-70
2021/01/23 05:07:50;;;;;;;;;;;2.00;99.90;;;;;;5085988;28;20405;-69
2021/01/23 05:10:17;;;;;;;;;;;2.00;99.90;;;;;;5072924;28;19931;-69
2021/01/23 05:12:44;;;;;;;;;;;2.00;99.90;;;;;;5073129;28;19928;-69
2021/01/23 05:15:11;;;;;;;;;;;2.00;99.90;;;;;;5073280;28;19936;-69
2021/01/23 05:17:54;;;;;;;;;;;2.00;99.90;;;;;;5073318;28;19968;-70
2021/01/23 05:20:31;;;;;;;;;;;2.00;99.90;;;;;;5072791;28;19963;-69
2021/01/23 05:22:57;;;;;;;;;;;1.90;99.90;;;;;;5072874;28;19964;-69
2021/01/23 05:25:27;;;;;;;;;;;1.90;99.90;;;;;;5072824;28;19931;-69
2021/01/23 05:27:53;;;;;;;;;;;1.90;99.90;;;;;;5072720;28;19925;-69
2021/01/23 05:30:19;;;;;;;;;;;2.00;99.90;;;;;;5072710;28;19947;-69
2021/01/23 05:32:45;;;;;;;;;;;2.00;99.90;;;;;;5072759;28;19924;-69
2021/01/23 05:35:15;;;;;;;;;;;2.00;99.90;;;;;;5088684;28;19924;-69
2021/01/23 05:37:42;;;;;;;;;;;2.10;99.90;;;;;;5092876;28;19928;-69
2021/01/23 05:40:09;;;;;;;;;;;2.10;99.90;;;;;;5092472;28;19928;-69
2021/01/23 05:42:41;;;;;;;;;;;2.10;99.90;;;;;;5093127;28;19924;-69
2021/01/23 05:45:11;;;;;;;;;;;2.00;99.90;;;;;;5092859;28;20335;-69
2021/01/23 05:47:37;;;;;;;;;;;2.00;99.90;;;;;;5092884;28;19931;-69
2021/01/23 05:50:04;;;;;;;;;;;2.00;99.90;;;;;;5092118;28;19928;-69
2021/01/23 05:52:30;;;;;;;;;;;2.00;99.90;;;;;;5092752;28;20006;-69
2021/01/23 05:54:56;;;;;;;;;;;2.00;99.90;;;;;;5092772;28;19931;-69
2021/01/23 05:57:22;;;;;;;;;;;2.00;99.90;;;;;;5093106;28;19928;-69
2021/01/23 05:59:49;;;;;;;;;;;2.00;99.90;;;;;;5092284;28;20393;-70
2021/01/23 06:02:16;;;;;;;;;;;2.10;99.90;;;;;;5082066;28;19924;-69
2021/01/23 06:04:42;;;;;;;;;;;2.00;99.90;;;;;;5072246;28;19931;-70
2021/01/23 06:07:08;;;;;;;;;;;2.00;99.90;;;;;;5072170;28;19931;-69
2021/01/23 06:09:35;;;;;;;;;;;2.00;99.90;;;;;;5072490;28;20336;-69
2021/01/23 06:12:02;;;;;;;;;;;2.00;99.90;;;;;;5072043;28;19925;-69
2021/01/23 06:14:38;;;;;;;;;;;2.00;99.90;;;;;;5071353;28;20336;-69
2021/01/23 06:17:05;;;;;;;;;;;2.00;99.90;;;;;;5072289;28;19924;-69
2021/01/23 06:19:43;;;;;;;;;;;2.10;99.90;;;;;;5072087;28;19925;-69
2021/01/23 06:22:09;;;;;;;;;;;2.10;99.90;;;;;;5072059;28;20000;-69
2021/01/23 06:24:54;;;;;;;;;;;2.10;99.90;;;;;;5072271;28;19924;-70
2021/01/23 06:27:21;;;;;;;;;;;2.10;99.90;;;;;;5072253;28;19975;-70
2021/01/23 06:29:48;;;;;;;;;;;2.20;99.90;;;;;;5080008;28;19974;-70
2021/01/23 06:32:26;;;;;;;;;;;2.20;99.90;;;;;;5092608;28;19927;-69
2021/01/23 06:34:53;;;;;;;;;;;2.20;99.90;;;;;;5092287;28;19924;-70
2021/01/23 06:37:20;;;;;;;;;;;2.20;99.90;;;;;;5092229;28;20408;-70
2021/01/23 06:40:02;;;;;;;;;;;2.20;99.90;;;;;;5091876;28;20270;-70
2021/01/23 06:42:29;;;;;;;;;;;2.30;99.90;;;;;;5092245;28;19977;-69
2021/01/23 06:44:55;;;;;;;;;;;2.30;99.90;;;;;;5091983;28;19924;-69
2021/01/23 06:47:21;;;;;;;;;;;2.30;99.90;;;;;;5092327;28;19924;-70
2021/01/23 06:49:47;;;;;;;;;;;2.30;99.90;;;;;;5091877;28;19928;-69
2021/01/23 06:52:13;;;;;;;;;;;2.30;99.90;;;;;;5092219;28;19939;-69
2021/01/23 06:54:44;;;;;;;;;;;2.40;99.90;;;;;;5091986;28;19935;-69
2021/01/23 06:57:11;;;;;;;;;;;2.40;99.90;;;;;;5086810;28;19929;-70
2021/01/23 06:59:37;;;;;;;;;;;2.40;99.90;;;;;;5071781;28;20385;-69
2021/01/23 07:02:04;;;;;;;;;;;2.40;99.90;;;;;;5071614;28;19925;-69
2021/01/23 07:04:31;;;;;;;;;;;2.40;99.90;;;;;;5071730;28;19978;-69
2021/01/23 07:06:58;;;;;;;;;;;2.40;99.90;;;;;;5071806;28;19932;-69
2021/01/23 07:09:43;;;;;;;;;;;2.40;99.90;;;;;;5071777;28;20400;-70
2021/01/23 07:12:09;;;;;;;;;;;2.40;99.90;;;;;;5071913;28;20331;-70
2021/01/23 07:14:35;;;;;;;;;;;2.40;99.90;;;;;;5071696;28;19970;-69
2021/01/23 07:17:01;;;;;;;;;;;2.40;99.90;;;;;;5071810;28;19925;-69
2021/01/23 07:19:27;;;;;;;;;;;2.40;99.90;;;;;;5071677;28;20498;-69
2021/01/23 07:21:54;;;;;;;;;;;2.40;99.90;;;;;;5071223;28;19946;-69
2021/01/23 07:24:20;;;;;;;;;;;2.40;99.90;;;;;;5071743;28;19924;-69
2021/01/23 07:26:46;;;;;;;;;;;2.30;99.90;;;;;;5094651;28;19931;-69
2021/01/23 07:29:12;;;;;;;;;;;2.30;99.90;;;;;;5095564;28;19931;-70
2021/01/23 07:31:38;;;;;;;;;;;2.30;99.90;;;;;;5095040;28;19924;-69
2021/01/23 07:34:10;;;;;;;;;;;2.30;99.90;;;;;;5095065;28;20416;-69
2021/01/23 07:36:37;;;;;;;;;;;2.30;99.90;;;;;;5095547;28;20522;-69
2021/01/23 07:39:05;;;;;;;;;;;2.30;99.90;;;;;;5095252;28;19924;-69
2021/01/23 07:41:31;;;;;;;;;;;2.40;99.90;;;;;;5094844;28;19931;-68
2021/01/23 07:43:58;;;;;;;;;;;2.30;99.90;;;;;;5095284;28;19924;-69
2021/01/23 07:46:24;;;;;;;;;;;2.40;99.90;;;;;;5095360;28;19931;-69
2021/01/23 07:48:50;;;;;;;;;;;2.40;99.90;;;;;;5078114;28;20408;-69
2021/01/23 07:51:27;;;;;;;;;;;2.40;99.90;;;;;;5074416;28;19925;-69
2021/01/23 07:54:06;;;;;;;;;;;2.40;99.90;;;;;;5089740;28;19943;-69
2021/01/23 07:56:32;;;;;;;;;;;2.50;99.90;;;;;;5094671;28;19946;-69
2021/01/23 07:58:58;;;;;;;;;;;2.40;99.90;;;;;;5095135;28;20277;-69
2021/01/23 08:01:24;;;;;;;;;;;2.40;99.90;;;;;;5094318;28;19974;-69
2021/01/23 08:03:50;;;;;;;;;;;2.40;99.90;;;;;;5094642;28;19934;-69
2021/01/23 08:06:20;;;;;;;;;;;2.40;99.90;;;;;;5094986;28;20377;-70
2021/01/23 08:08:48;;;;;;;;;;;2.50;99.90;;;;;;5094962;28;20300;-69
2021/01/23 08:11:29;;;;;;;;;;;2.50;99.90;;;;;;5094608;28;19924;-69
2021/01/23 08:14:05;;;;;;;;;;;2.50;99.90;;;;;;5076011;28;19932;-70
2021/01/23 08:16:31;;;;;;;;;;;2.50;99.90;;;;;;5074596;28;19965;-69
2021/01/23 08:19:04;;;;;;;;;;;2.50;99.90;;;;;;5074405;28;20498;-69
2021/01/23 08:21:30;;;;;;;;;;;2.50;99.90;;;;;;5073978;28;19936;-70
2021/01/23 08:23:57;;;;;;;;;;;2.40;99.90;;;;;;5074172;28;19925;-69
2021/01/23 08:26:35;;;;;;;;;;;2.30;99.90;;;;;;5074388;28;19931;-69
2021/01/23 08:29:02;;;;;;;;;;;2.40;99.90;;;;;;5074304;28;19924;-69
2021/01/23 08:31:28;;;;;;;;;;;2.40;99.90;;;;;;5073722;28;20373;-69
2021/01/23 08:33:55;;;;;;;;;;;2.30;99.90;;;;;;5083243;28;20309;-69
2021/01/23 08:36:21;;;;;;;;;;;2.30;99.90;;;;;;5114530;28;20010;-70
2021/01/23 08:38:53;;;;;;;;;;;2.20;99.90;;;;;;5113808;28;19924;-70
2021/01/23 08:41:20;;;;;;;;;;;2.20;99.90;;;;;;5098378;28;19928;-70
2021/01/23 08:43:46;;;;;;;;;;;2.20;99.90;;;;;;5093849;28;20411;-70
2021/01/23 08:46:12;;;;;;;;;;;2.20;99.90;;;;;;5088627;28;19939;-69
2021/01/23 08:48:38;;;;;;;;;;;2.10;99.90;;;;;;5073904;28;20389;-70
2021/01/23 08:51:04;;;;;;;;;;;2.10;99.90;;;;;;5073493;28;19924;-69
2021/01/23 08:53:30;;;;;;;;;;;2.00;99.90;;;;;;5073574;28;19978;-69
2021/01/23 08:55:56;;;;;;;;;;;2.00;99.90;;;;;;5073260;28;19925;-69
2021/01/23 08:58:23;;;;;;;;;;;2.00;99.90;;;;;;5073481;28;19982;-69
2021/01/23 09:00:49;;;;;;;;;;;2.00;99.90;;;;;;5073994;28;20335;-71
2021/01/23 09:03:15;;;;;;;;;;;1.90;99.90;;;;;;5080297;28;19931;-69
2021/01/23 09:05:41;;;;;;;;;;;1.90;99.90;;;;;;5093625;28;19977;-70
2021/01/23 09:08:07;;;;;;;;;;;1.80;99.90;;;;;;5093568;28;19930;-68
2021/01/23 09:10:33;;;;;;;;;;;1.80;99.90;;;;;;5093214;28;20381;-67
2021/01/23 09:12:59;;;;;;;;;;;1.80;99.90;;;;;;5093254;28;19987;-69
2021/01/23 09:15:26;;;;;;;;;;;1.80;99.90;;;;;;5093323;28;19924;-67
2021/01/23 09:17:52;;;;;;;;;;;1.80;99.90;;;;;;5093236;28;19924;-67
2021/01/23 09:20:18;;;;;;;;;;;1.80;99.90;;;;;;5093147;28;19924;-69
2021/01/23 09:22:44;;;;;;;;;;;1.70;99.90;;;;;;5093148;28;19924;-69
2021/01/23 09:25:10;;;;;;;;;;;1.70;99.90;;;;;;5087233;28;20038;-69
2021/01/23 09:27:36;;;;;;;;;;;1.60;99.90;;;;;;5073121;28;20021;-69
2021/01/23 09:30:03;;;;;;;;;;;1.70;99.90;;;;;;5072592;28;20019;-70
2021/01/23 09:32:29;;;;;;;;;;;1.70;99.90;;;;;;5090854;28;19924;-70
2021/01/23 09:34:56;;;;;;;;;;;1.70;99.90;;;;;;5092729;28;20519;-70
2021/01/23 09:37:23;;;;;;;;;;;1.70;99.90;;;;;;5092535;28;19928;-70
2021/01/23 09:39:49;;;;;;;;;;;1.60;99.90;;;;;;5092884;28;19935;-71
2021/01/23 09:42:15;;;;;;;;;;;1.60;99.90;;;;;;5092725;28;20312;-72
2021/01/23 09:44:41;;;;;;;;;;;1.60;99.90;;;;;;5092756;28;19977;-70
2021/01/23 09:47:09;;;;;;;;;;;1.60;99.90;;;;;;5092918;28;19928;-70
2021/01/23 09:49:37;;;;;;;;;;;1.60;99.90;;;;;;5091824;28;20372;-69
2021/01/23 09:52:03;;;;;;;;;;;1.60;99.90;;;;;;5092260;28;19931;-70
2021/01/23 09:54:29;;;;;;;;;;;1.60;99.90;;;;;;5092694;28;20291;-70
2021/01/23 09:56:55;;;;;;;;;;;1.60;99.90;;;;;;5092124;28;19924;-72
2021/01/23 09:59:21;;;;;;;;;;;1.60;99.90;;;;;;5081760;28;20323;-70
2021/01/23 10:01:47;;;;;;;;;;;1.60;99.90;;;;;;5071998;28;19932;-70
2021/01/23 10:04:13;;;;;;;;;;;1.70;99.90;;;;;;5072386;28;19978;-68
2021/01/23 10:06:39;;;;;;;;;;;1.70;99.90;;;;;;5072262;28;19966;-68
2021/01/23 10:09:05;;;;;;;;;;;1.70;99.90;;;;;;5084615;28;19924;-69
2021/01/23 10:11:31;;;;;;;;;;;1.70;99.90;;;;;;5092376;28;19932;-71
2021/01/23 10:13:57;;;;;;;;;;;1.70;99.90;;;;;;5092219;28;20036;-70
2021/01/23 10:16:24;;;;;;;;;;;1.70;99.90;;;;;;5092411;28;19924;-69
2021/01/23 10:18:50;;;;;;;;;;;1.80;99.90;;;;;;5092225;28;20388;-71
2021/01/23 10:21:16;;;;;;;;;;;1.70;99.90;;;;;;5090417;28;19924;-71
2021/01/23 10:23:43;;;;;;;;;;;1.80;99.90;;;;;;5088472;28;19924;-71
2021/01/23 10:26:09;;;;;;;;;;;1.90;99.90;;;;;;5092374;28;19924;-72
2021/01/23 10:28:35;;;;;;;;;;;1.80;99.90;;;;;;5092515;28;20097;-72
2021/01/23 10:31:01;;;;;;;;;;;1.70;99.90;;;;;;5087261;28;19970;-71
2021/01/23 10:33:27;;;;;;;;;;;1.80;99.90;;;;;;5071879;28;19925;-70
2021/01/23 10:35:53;;;;;;;;;;;1.80;99.90;;;;;;5072061;28;20377;-71
2021/01/23 10:38:19;;;;;;;;;;;1.80;99.90;;;;;;5072159;28;19932;-70
2021/01/23 10:40:45;;;;;;;;;;;1.80;99.90;;;;;;5071548;28;19924;-70
2021/01/23 10:43:11;;;;;;;;;;;1.80;99.90;;;;;;5072139;28;19925;-69
2021/01/23 10:45:38;;;;;;;;;;;1.90;99.90;;;;;;5077066;28;19931;-69
2021/01/23 10:48:05;;;;;;;;;;;1.90;99.90;;;;;;5091934;28;19924;-69
2021/01/23 10:50:31;;;;;;;;;;;1.90;99.90;;;;;;5091611;28;20286;-70
2021/01/23 10:52:57;;;;;;;;;;;1.90;99.90;;;;;;5090387;28;19924;-69
2021/01/23 10:55:23;;;;;;;;;;;1.90;99.90;;;;;;5092104;28;19982;-70
2021/01/23 10:57:52;;;;;;;;;;;1.80;99.90;;;;;;5092069;28;19924;-68
2021/01/23 11:00:18;;;;;;;;;;;1.80;99.90;;;;;;5092020;28;19970;-68
2021/01/23 11:02:44;;;;;;;;;;;1.90;99.90;;;;;;5095662;28;19924;-68
2021/01/23 11:05:11;;;;;;;;;;;1.80;99.90;;;;;;5096073;28;20296;-69
2021/01/23 11:07:37;;;;;;;;;;;1.90;99.90;;;;;;5095927;28;19948;-69
2021/01/23 11:10:03;;;;;;;;;;;1.90;99.90;;;;;;5095475;28;20396;-68
2021/01/23 11:12:29;;;;;;;;;;;1.90;99.90;;;;;;5095697;28;19970;-69
2021/01/23 11:14:56;;;;;;;;;;;1.90;99.90;;;;;;5095638;28;19924;-69
2021/01/23 11:17:22;;;;;;;;;;;2.00;99.90;;;;;;5095547;28;19928;-68
2021/01/23 11:19:48;;;;;;;;;;;2.00;99.90;;;;;;5095451;28;19931;-68
2021/01/23 11:22:14;;;;;;;;;;;2.00;99.90;;;;;;5095514;28;19947;-68
2021/01/23 11:24:40;;;;;;;;;;;2.10;99.90;;;;;;5095475;28;20412;-68
2021/01/23 11:27:06;;;;;;;;;;;2.10;99.90;;;;;;5095346;28;20288;-69
2021/01/23 11:29:33;;;;;;;;;;;2.10;99.90;;;;;;5095107;28;19976;-68
2021/01/23 11:32:00;;;;;;;;;;;2.10;99.90;;;;;;5095022;28;20376;-68
2021/01/23 11:34:26;;;;;;;;;;;2.10;99.90;;;;;;5095030;28;20331;-68
2021/01/23 11:36:52;;;;;;;;;;;2.10;99.90;;;;;;5095103;28;19924;-69
2021/01/23 11:39:17;;;;;;;;;;;2.20;99.90;;;;;;5094523;28;19985;-68
2021/01/23 11:41:44;;;;;;;;;;;2.20;99.90;;;;;;5094654;28;19924;-68
2021/01/23 11:44:10;;;;;;;;;;;2.20;99.90;;;;;;5094900;28;19924;-68
2021/01/23 11:46:36;;;;;;;;;;;2.30;99.90;;;;;;5094980;28;20305;-68
2021/01/23 11:49:02;;;;;;;;;;;2.30;99.90;;;;;;5095010;28;19924;-69
2021/01/23 11:51:28;;;;;;;;;;;2.30;99.90;;;;;;5094763;28;19924;-68
2021/01/23 11:53:54;;;;;;;;;;;2.30;99.90;;;;;;5094892;28;20033;-69
2021/01/23 11:56:21;;;;;;;;;;;2.40;99.90;;;;;;5094776;28;19981;-69
2021/01/23 11:58:47;;;;;;;;;;;2.40;99.90;;;;;;5094639;28;19924;-68
2021/01/23 12:01:13;;;;;;;;;;;2.40;99.90;;;;;;5094445;28;20293;-69
2021/01/23 12:03:39;;;;;;;;;;;2.40;99.90;;;;;;5094909;28;20342;-69
2021/01/23 12:06:05;;;;;;;;;;;2.40;99.90;;;;;;5094696;28;19924;-69
2021/01/23 12:08:31;;;;;;;;;;;2.40;99.90;;;;;;5094627;28;19924;-69
2021/01/23 12:10:59;;;;;;;;;;;2.40;99.90;;;;;;5094168;28;19924;-67
2021/01/23 12:13:25;;;;;;;;;;;2.40;99.90;;;;;;5093441;28;19924;-69
2021/01/23 12:15:51;;;;;;;;;;;2.40;99.90;;;;;;5094308;28;19977;-69
2021/01/23 12:18:17;;;;;;;;;;;2.40;99.90;;;;;;5094521;28;19931;-68
2021/01/23 12:20:43;;;;;;;;;;;2.50;99.90;;;;;;5094331;28;20304;-68
2021/01/23 12:23:10;;;;;;;;;;;2.40;99.90;;;;;;5094246;28;19924;-68
2021/01/23 12:25:36;;;;;;;;;;;2.50;99.90;;;;;;5094334;28;19924;-69
2021/01/23 12:28:02;;;;;;;;;;;2.50;99.90;;;;;;5094322;28;19924;-68
2021/01/23 12:30:28;;;;;;;;;;;2.60;99.90;;;;;;5093807;28;19930;-68
2021/01/23 12:32:54;;;;;;;;;;;2.60;99.90;;;;;;5094306;28;19924;-68
2021/01/23 12:35:20;;;;;;;;;;;2.60;99.90;;;;;;5094127;28;19963;-68
2021/01/23 12:37:46;;;;;;;;;;;2.60;99.90;;;;;;5094122;28;20301;-68
2021/01/23 12:40:14;;;;;;;;;;;2.70;99.90;;;;;;5093881;28;20296;-68
2021/01/23 12:42:40;;;;;;;;;;;3.00;99.90;;;;;;5093763;28;19985;-68
2021/01/23 12:45:07;;;;;;;;;;;3.20;99.90;;;;;;5093906;28;19928;-68
2021/01/23 12:47:33;;;;;;;;;;;3.40;99.90;;;;;;5093873;28;20422;-68
2021/01/23 12:49:59;;;;;;;;;;;3.60;99.90;;;;;;5093583;28;19927;-68
2021/01/23 12:52:25;;;;;;;;;;;3.80;99.90;;;;;;5093763;28;19928;-68
2021/01/23 12:54:51;;;;;;;;;;;3.80;99.90;;;;;;5093626;28;20305;-69
2021/01/23 12:57:18;;;;;;;;;;;3.80;99.90;;;;;;5093783;28;19947;-68
2021/01/23 12:59:44;;;;;;;;;;;3.90;99.90;;;;;;5093542;28;19924;-68
2021/01/23 13:02:10;;;;;;;;;;;4.00;99.90;;;;;;5093447;28;19939;-68
2021/01/23 13:04:36;;;;;;;;;;;4.00;99.90;;;;;;5093728;28;19969;-69
2021/01/23 13:07:02;;;;;;;;;;;4.00;99.90;;;;;;5093383;28;19924;-69
2021/01/23 13:09:28;;;;;;;;;;;3.90;99.90;;;;;;5094351;28;19990;-68
2021/01/23 13:11:54;;;;;;;;;;;4.00;99.90;;;;;;5093138;28;20393;-68
2021/01/23 13:14:21;;;;;;;;;;;3.90;99.90;;;;;;5093479;28;19991;-69
2021/01/23 13:16:48;;;;;;;;;;;3.90;99.90;;;;;;5093256;28;20365;-69
2021/01/23 13:19:14;;;;;;;;;;;3.90;99.90;;;;;;5093477;28;19965;-69
2021/01/23 13:21:40;;;;;;;;;;;3.80;99.90;;;;;;5092883;28;20066;-68
2021/01/23 13:24:06;;;;;;;;;;;3.80;99.90;;;;;;5092938;28;19931;-69
2021/01/23 13:26:33;;;;;;;;;;;3.70;99.90;;;;;;5093243;28;19924;-68
2021/01/23 13:28:59;;;;;;;;;;;3.70;99.90;;;;;;5093236;28;19977;-69
2021/01/23 13:31:27;;;;;;;;;;;3.70;99.90;;;;;;5093044;28;19956;-69
2021/01/23 13:33:54;;;;;;;;;;;3.70;99.90;;;;;;5093001;28;19971;-70
2021/01/23 13:36:20;;;;;;;;;;;3.60;99.90;;;;;;5093173;28;20072;-69
2021/01/23 13:38:46;;;;;;;;;;;3.60;99.90;;;;;;5092973;28;19947;-69
2021/01/23 13:41:12;;;;;;;;;;;3.60;99.90;;;;;;5092456;28;20373;-69
2021/01/23 13:43:38;;;;;;;;;;;3.50;99.90;;;;;;5092902;28;19928;-70
2021/01/23 13:46:04;;;;;;;;;;;3.50;99.90;;;;;;5093193;28;19924;-69
2021/01/23 13:48:31;;;;;;;;;;;3.50;99.90;;;;;;5092690;28;19931;-70
2021/01/23 13:50:57;;;;;;;;;;;3.50;99.90;;;;;;5092718;28;19924;-69
2021/01/23 13:53:23;;;;;;;;;;;3.50;99.90;;;;;;5092591;28;20333;-70
2021/01/23 13:55:49;;;;;;;;;;;3.50;99.90;;;;;;5092692;28;19934;-69
2021/01/23 13:58:15;;;;;;;;;;;3.50;99.90;;;;;;5092921;28;19924;-69
2021/01/23 14:00:41;;;;;;;;;;;3.50;99.90;;;;;;5092418;28;19924;-69
2021/01/23 14:03:07;;;;;;;;;;;3.50;99.90;;;;;;5092586;28;19924;-68
2021/01/23 14:05:34;;;;;;;;;;;3.50;99.90;;;;;;5092465;28;19924;-69
2021/01/23 14:08:00;;;;;;;;;;;3.50;99.90;;;;;;5092494;28;20067;-69
2021/01/23 14:10:26;;;;;;;;;;;3.40;99.90;;;;;;5091963;28;19931;-69
2021/01/23 14:12:52;;;;;;;;;;;3.40;99.90;;;;;;5092569;28;20365;-68
2021/01/23 14:15:20;;;;;;;;;;;3.40;99.90;;;;;;5092440;28;19978;-69
2021/01/23 14:17:47;;;;;;;;;;;3.30;99.90;;;;;;5092523;28;19928;-68
2021/01/23 14:20:13;;;;;;;;;;;3.30;99.90;;;;;;5091941;28;19924;-69
2021/01/23 14:22:40;;;;;;;;;;;3.30;99.90;;;;;;5092086;28;19924;-68
2021/01/23 14:25:06;;;;;;;;;;;3.20;99.90;;;;;;5092260;28;19930;-69
2021/01/23 14:27:32;;;;;;;;;;;3.20;99.90;;;;;;5092472;28;20009;-69
2021/01/23 14:29:58;;;;;;;;;;;3.20;99.90;;;;;;5091873;28;19936;-68